sensor_id;sensor_type;location;lat;lon;timestamp;pressure;altitude;pressure_sealevel;temperature;humidity
55675;BME280;41562;44.330;23.802;2022-11-20T00:02:18;99679.38;;;9.15;100.00
55675;BME280;41562;44.330;23.802;2022-11-20T00:04:46;99678.91;;;8.98;100.00
55675;BME280;41562;44.330;23.802;2022-11-20T00:07:13;99686.91;;;9.03;100.00
55675;BME280;41562;44.330;23.802;2022-11-20T00:09:40;99686.25;;;9.26;100.00
55675;BME280;41562;44.330;23.802;2022-11-20T00:12:10;99689.44;;;9.28;100.00
55675;BME280;41562;44.330;23.802;2022-11-20T00:14:37;99673.97;;;9.25;100.00
55675;BME280;41562;44.330;23.802;2022-11-20T00:17:05;99658.38;;;9.48;100.00
55675;BME280;41562;44.330;23.802;2022-11-20T00:19:32;99673.84;;;9.46;100.00
55675;BME280;41562;44.330;23.802;2022-11-20T00:21:59;99691.97;;;9.54;100.00
55675;BME280;41562;44.330;23.802;2022-11-20T00:24:26;99697.78;;;9.61;100.00
55675;BME280;41562;44.330;23.802;2022-11-20T00:26:53;99703.88;;;9.66;100.00
55675;BME280;41562;44.330;23.802;2022-11-20T00:29:21;99706.41;;;9.48;100.00
55675;BME280;41562;44.330;23.802;2022-11-20T00:31:48;99698.84;;;9.60;100.00
55675;BME280;41562;44.330;23.802;2022-11-20T00:34:15;99694.16;;;9.42;100.00
55675;BME280;41562;44.330;23.802;2022-11-20T00:36:42;99702.22;;;9.32;100.00
55675;BME280;41562;44.330;23.802;2022-11-20T00:39:10;99693.34;;;9.46;100.00
55675;BME280;41562;44.330;23.802;2022-11-20T00:41:39;99688.22;;;9.50;100.00
55675;BME280;41562;44.330;23.802;2022-11-20T00:44:06;99686.44;;;9.40;100.00
55675;BME280;41562;44.330;23.802;2022-11-20T00:46:33;99683.47;;;9.47;100.00
55675;BME280;41562;44.330;23.802;2022-11-20T00:49:00;99681.78;;;9.56;100.00
55675;BME280;41562;44.330;23.802;2022-11-20T00:51:27;99678.09;;;9.52;100.00
55675;BME280;41562;44.330;23.802;2022-11-20T00:53:56;99678.84;;;9.57;100.00
55675;BME280;41562;44.330;23.802;2022-11-20T00:56:26;99675.28;;;9.33;100.00
55675;BME280;41562;44.330;23.802;2022-11-20T00:58:54;99677.22;;;9.22;100.00
55675;BME280;41562;44.330;23.802;2022-11-20T01:01:23;99679.97;;;9.02;100.00
55675;BME280;41562;44.330;23.802;2022-11-20T01:03:54;99671.22;;;8.97;100.00
55675;BME280;41562;44.330;23.802;2022-11-20T01:06:25;99666.88;;;9.06;100.00
55675;BME280;41562;44.330;23.802;2022-11-20T01:08:54;99674.06;;;9.10;100.00
55675;BME280;41562;44.330;23.802;2022-11-20T01:11:27;99672.69;;;9.18;100.00
55675;BME280;41562;44.330;23.802;2022-11-20T01:13:56;99675.94;;;9.05;100.00
55675;BME280;41562;44.330;23.802;2022-11-20T01:16:33;99673.47;;;9.18;100.00
55675;BME280;41562;44.330;23.802;2022-11-20T01:19:03;99683.59;;;9.21;100.00
55675;BME280;41562;44.330;23.802;2022-11-20T01:21:36;99682.25;;;9.24;100.00
55675;BME280;41562;44.330;23.802;2022-11-20T01:24:09;99704.88;;;9.32;100.00
55675;BME280;41562;44.330;23.802;2022-11-20T01:26:41;99724.81;;;9.44;100.00
55675;BME280;41562;44.330;23.802;2022-11-20T01:29:23;99741.09;;;9.48;100.00
55675;BME280;41562;44.330;23.802;2022-11-20T01:31:55;99757.59;;;9.50;100.00
55675;BME280;41562;44.330;23.802;2022-11-20T01:34:23;99759.22;;;9.51;100.00
55675;BME280;41562;44.330;23.802;2022-11-20T01:36:51;99761.03;;;9.60;100.00
55675;BME280;41562;44.330;23.802;2022-11-20T01:39:21;99761.84;;;9.61;100.00
55675;BME280;41562;44.330;23.802;2022-11-20T01:41:50;99745.84;;;9.56;100.00
55675;BME280;41562;44.330;23.802;2022-11-20T01:44:21;99723.22;;;9.43;100.00
55675;BME280;41562;44.330;23.802;2022-11-20T01:47:01;99714.91;;;9.50;100.00
55675;BME280;41562;44.330;23.802;2022-11-20T01:52:01;99729.81;;;9.56;100.00
55675;BME280;41562;44.330;23.802;2022-11-20T01:54:37;99739.47;;;9.52;100.00
55675;BME280;41562;44.330;23.802;2022-11-20T01:57:09;99746.75;;;9.41;100.00
55675;BME280;41562;44.330;23.802;2022-11-20T01:59:40;99751.44;;;9.59;100.00
55675;BME280;41562;44.330;23.802;2022-11-20T02:02:11;99756.03;;;9.44;100.00
55675;BME280;41562;44.330;23.802;2022-11-20T02:04:38;99765.16;;;9.38;100.00
55675;BME280;41562;44.330;23.802;2022-11-20T02:07:05;99764.59;;;9.46;100.00
55675;BME280;41562;44.330;23.802;2022-11-20T02:09:32;99767.25;;;9.46;100.00
55675;BME280;41562;44.330;23.802;2022-11-20T02:12:00;99763.97;;;9.59;100.00
55675;BME280;41562;44.330;23.802;2022-11-20T02:14:28;99768.81;;;9.52;100.00
55675;BME280;41562;44.330;23.802;2022-11-20T02:16:55;99775.53;;;9.44;100.00
55675;BME280;41562;44.330;23.802;2022-11-20T02:19:27;99776.25;;;9.60;100.00
55675;BME280;41562;44.330;23.802;2022-11-20T02:22:04;99786.38;;;9.63;100.00
55675;BME280;41562;44.330;23.802;2022-11-20T02:24:32;99769.00;;;9.65;100.00
55675;BME280;41562;44.330;23.802;2022-11-20T02:27:07;99753.84;;;9.61;100.00
55675;BME280;41562;44.330;23.802;2022-11-20T02:32:29;99742.50;;;9.74;100.00
55675;BME280;41562;44.330;23.802;2022-11-20T02:34:57;99744.19;;;9.65;100.00
55675;BME280;41562;44.330;23.802;2022-11-20T02:37:30;99736.44;;;9.63;100.00
55675;BME280;41562;44.330;23.802;2022-11-20T02:39:59;99727.66;;;9.63;100.00
55675;BME280;41562;44.330;23.802;2022-11-20T02:42:27;99730.88;;;9.60;100.00
55675;BME280;41562;44.330;23.802;2022-11-20T02:44:54;99727.91;;;9.66;100.00
55675;BME280;41562;44.330;23.802;2022-11-20T02:47:22;99743.47;;;9.49;100.00
55675;BME280;41562;44.330;23.802;2022-11-20T02:49:49;99736.56;;;9.48;100.00
55675;BME280;41562;44.330;23.802;2022-11-20T02:52:16;99739.00;;;9.40;100.00
55675;BME280;41562;44.330;23.802;2022-11-20T02:54:43;99737.38;;;9.44;100.00
55675;BME280;41562;44.330;23.802;2022-11-20T02:57:10;99740.56;;;9.46;100.00
55675;BME280;41562;44.330;23.802;2022-11-20T02:59:37;99733.63;;;9.45;100.00
55675;BME280;41562;44.330;23.802;2022-11-20T03:02:05;99737.91;;;9.46;100.00
55675;BME280;41562;44.330;23.802;2022-11-20T03:04:32;99740.56;;;9.46;100.00
55675;BME280;41562;44.330;23.802;2022-11-20T03:06:59;99756.34;;;9.37;100.00
55675;BME280;41562;44.330;23.802;2022-11-20T03:09:29;99766.22;;;9.37;100.00
55675;BME280;41562;44.330;23.802;2022-11-20T03:11:56;99744.88;;;9.37;100.00
55675;BME280;41562;44.330;23.802;2022-11-20T03:14:26;99749.69;;;9.35;100.00
55675;BME280;41562;44.330;23.802;2022-11-20T03:16:53;99770.19;;;9.44;100.00
55675;BME280;41562;44.330;23.802;2022-11-20T03:19:23;99772.06;;;9.44;100.00
55675;BME280;41562;44.330;23.802;2022-11-20T03:21:51;99788.56;;;9.51;100.00
55675;BME280;41562;44.330;23.802;2022-11-20T03:24:21;99802.97;;;9.50;100.00
55675;BME280;41562;44.330;23.802;2022-11-20T03:26:52;99782.94;;;9.57;100.00
55675;BME280;41562;44.330;23.802;2022-11-20T03:29:19;99749.09;;;9.43;100.00
55675;BME280;41562;44.330;23.802;2022-11-20T03:31:47;99745.53;;;9.62;100.00
55675;BME280;41562;44.330;23.802;2022-11-20T03:34:17;99735.28;;;9.36;100.00
55675;BME280;41562;44.330;23.802;2022-11-20T03:36:44;99748.31;;;9.47;100.00
55675;BME280;41562;44.330;23.802;2022-11-20T03:39:11;99749.38;;;9.46;100.00
55675;BME280;41562;44.330;23.802;2022-11-20T03:41:40;99755.75;;;9.50;100.00
55675;BME280;41562;44.330;23.802;2022-11-20T03:44:09;99755.44;;;9.57;100.00
55675;BME280;41562;44.330;23.802;2022-11-20T03:46:37;99752.25;;;9.55;100.00
55675;BME280;41562;44.330;23.802;2022-11-20T03:49:04;99775.28;;;9.41;100.00
55675;BME280;41562;44.330;23.802;2022-11-20T03:51:34;99789.09;;;9.53;100.00
55675;BME280;41562;44.330;23.802;2022-11-20T03:54:07;99778.97;;;9.50;100.00
55675;BME280;41562;44.330;23.802;2022-11-20T03:56:38;99773.91;;;9.48;100.00
55675;BME280;41562;44.330;23.802;2022-11-20T03:59:05;99775.31;;;9.36;100.00
55675;BME280;41562;44.330;23.802;2022-11-20T04:01:34;99760.84;;;9.47;100.00
55675;BME280;41562;44.330;23.802;2022-11-20T04:04:06;99763.53;;;9.42;100.00
55675;BME280;41562;44.330;23.802;2022-11-20T04:06:37;99757.13;;;9.43;100.00
55675;BME280;41562;44.330;23.802;2022-11-20T04:09:05;99758.75;;;9.39;100.00
55675;BME280;41562;44.330;23.802;2022-11-20T04:11:35;99750.75;;;9.39;100.00
55675;BME280;41562;44.330;23.802;2022-11-20T04:14:05;99757.16;;;9.38;100.00
55675;BME280;41562;44.330;23.802;2022-11-20T04:16:34;99746.16;;;9.44;100.00
55675;BME280;41562;44.330;23.802;2022-11-20T04:19:04;99747.03;;;9.35;100.00
55675;BME280;41562;44.330;23.802;2022-11-20T04:21:34;99749.94;;;9.38;100.00
55675;BME280;41562;44.330;23.802;2022-11-20T04:24:02;99752.38;;;9.35;100.00
55675;BME280;41562;44.330;23.802;2022-11-20T04:26:30;99754.19;;;9.44;100.00
55675;BME280;41562;44.330;23.802;2022-11-20T04:28:58;99766.38;;;9.55;100.00
55675;BME280;41562;44.330;23.802;2022-11-20T04:31:27;99766.78;;;9.34;100.00
55675;BME280;41562;44.330;23.802;2022-11-20T04:33:58;99787.59;;;9.32;100.00
55675;BME280;41562;44.330;23.802;2022-11-20T04:36:26;99778.91;;;10.43;100.00
55675;BME280;41562;44.330;23.802;2022-11-20T04:39:05;99770.63;;;12.15;100.00
55675;BME280;41562;44.330;23.802;2022-11-20T04:41:35;99759.66;;;11.79;100.00
55675;BME280;41562;44.330;23.802;2022-11-20T04:44:04;99757.84;;;11.74;100.00
55675;BME280;41562;44.330;23.802;2022-11-20T04:46:38;99736.72;;;12.24;100.00
55675;BME280;41562;44.330;23.802;2022-11-20T04:49:09;99723.28;;;12.70;100.00
55675;BME280;41562;44.330;23.802;2022-11-20T04:51:40;99729.44;;;12.57;99.89
55675;BME280;41562;44.330;23.802;2022-11-20T04:54:08;99727.56;;;11.36;100.00
55675;BME280;41562;44.330;23.802;2022-11-20T04:56:36;99721.59;;;11.82;98.63
55675;BME280;41562;44.330;23.802;2022-11-20T04:59:07;99691.78;;;13.52;92.84
55675;BME280;41562;44.330;23.802;2022-11-20T05:01:38;99663.63;;;13.00;91.22
55675;BME280;41562;44.330;23.802;2022-11-20T05:04:09;99653.69;;;11.35;100.00
55675;BME280;41562;44.330;23.802;2022-11-20T05:06:39;99650.84;;;11.45;100.00
55675;BME280;41562;44.330;23.802;2022-11-20T05:09:06;99653.91;;;10.35;100.00
55675;BME280;41562;44.330;23.802;2022-11-20T05:11:53;99648.59;;;10.30;100.00
55675;BME280;41562;44.330;23.802;2022-11-20T05:14:21;99629.38;;;9.70;100.00
55675;BME280;41562;44.330;23.802;2022-11-20T05:16:49;99623.41;;;9.44;100.00
55675;BME280;41562;44.330;23.802;2022-11-20T05:19:19;99620.88;;;9.24;100.00
55675;BME280;41562;44.330;23.802;2022-11-20T05:21:47;99628.47;;;9.07;100.00
55675;BME280;41562;44.330;23.802;2022-11-20T05:24:15;99643.69;;;9.06;100.00
55675;BME280;41562;44.330;23.802;2022-11-20T05:26:42;99659.69;;;9.06;100.00
55675;BME280;41562;44.330;23.802;2022-11-20T05:29:16;99665.63;;;8.88;100.00
55675;BME280;41562;44.330;23.802;2022-11-20T05:31:46;99652.75;;;9.05;100.00
55675;BME280;41562;44.330;23.802;2022-11-20T05:34:17;99645.81;;;9.04;100.00
55675;BME280;41562;44.330;23.802;2022-11-20T05:36:49;99665.81;;;9.07;100.00
55675;BME280;41562;44.330;23.802;2022-11-20T05:39:17;99679.88;;;9.17;100.00
55675;BME280;41562;44.330;23.802;2022-11-20T05:41:47;99694.06;;;9.08;100.00
55675;BME280;41562;44.330;23.802;2022-11-20T05:44:18;99713.06;;;11.00;100.00
55675;BME280;41562;44.330;23.802;2022-11-20T05:46:51;99716.94;;;10.02;100.00
55675;BME280;41562;44.330;23.802;2022-11-20T05:49:24;99734.53;;;9.69;100.00
55675;BME280;41562;44.330;23.802;2022-11-20T05:52:00;99740.00;;;9.54;100.00
55675;BME280;41562;44.330;23.802;2022-11-20T05:54:30;99744.88;;;9.37;100.00
55675;BME280;41562;44.330;23.802;2022-11-20T05:57:01;99747.53;;;9.42;100.00
55675;BME280;41562;44.330;23.802;2022-11-20T05:59:32;99762.50;;;9.33;100.00
55675;BME280;41562;44.330;23.802;2022-11-20T06:01:59;99765.22;;;9.27;100.00
55675;BME280;41562;44.330;23.802;2022-11-20T06:04:28;99778.09;;;9.10;100.00
55675;BME280;41562;44.330;23.802;2022-11-20T06:07:04;99775.94;;;9.07;100.00
55675;BME280;41562;44.330;23.802;2022-11-20T06:09:37;99778.09;;;9.10;100.00
55675;BME280;41562;44.330;23.802;2022-11-20T06:12:05;99781.78;;;9.19;100.00
55675;BME280;41562;44.330;23.802;2022-11-20T06:14:37;99770.09;;;9.10;100.00
55675;BME280;41562;44.330;23.802;2022-11-20T06:17:04;99750.25;;;9.32;100.00
55675;BME280;41562;44.330;23.802;2022-11-20T06:19:33;99769.03;;;10.67;100.00
55675;BME280;41562;44.330;23.802;2022-11-20T06:22:04;99781.25;;;10.11;100.00
55675;BME280;41562;44.330;23.802;2022-11-20T06:24:31;99786.09;;;10.71;100.00
55675;BME280;41562;44.330;23.802;2022-11-20T06:27:01;99796.88;;;10.32;100.00
55675;BME280;41562;44.330;23.802;2022-11-20T06:29:28;99806.91;;;10.06;100.00
55675;BME280;41562;44.330;23.802;2022-11-20T06:32:00;99812.88;;;9.98;100.00
55675;BME280;41562;44.330;23.802;2022-11-20T06:34:34;99818.38;;;9.73;100.00
55675;BME280;41562;44.330;23.802;2022-11-20T06:37:01;99822.88;;;9.78;100.00
55675;BME280;41562;44.330;23.802;2022-11-20T06:39:31;99830.06;;;9.77;100.00
55675;BME280;41562;44.330;23.802;2022-11-20T06:42:05;99822.28;;;9.86;100.00
55675;BME280;41562;44.330;23.802;2022-11-20T06:44:35;99815.91;;;9.82;100.00
55675;BME280;41562;44.330;23.802;2022-11-20T06:47:07;99801.91;;;9.51;100.00
55675;BME280;41562;44.330;23.802;2022-11-20T06:49:37;99779.06;;;9.24;100.00
55675;BME280;41562;44.330;23.802;2022-11-20T06:52:16;99782.34;;;9.16;100.00
55675;BME280;41562;44.330;23.802;2022-11-20T06:54:47;99792.00;;;8.97;100.00
55675;BME280;41562;44.330;23.802;2022-11-20T06:57:21;99790.09;;;9.08;100.00
55675;BME280;41562;44.330;23.802;2022-11-20T06:59:48;99786.47;;;9.48;100.00
55675;BME280;41562;44.330;23.802;2022-11-20T07:02:16;99780.66;;;9.36;100.00
55675;BME280;41562;44.330;23.802;2022-11-20T07:04:46;99782.03;;;9.18;100.00
55675;BME280;41562;44.330;23.802;2022-11-20T07:07:25;99782.41;;;8.86;100.00
55675;BME280;41562;44.330;23.802;2022-11-20T07:09:57;99777.13;;;8.71;100.00
55675;BME280;41562;44.330;23.802;2022-11-20T07:12:27;99770.72;;;8.77;100.00
55675;BME280;41562;44.330;23.802;2022-11-20T07:14:58;99778.94;;;8.85;100.00
55675;BME280;41562;44.330;23.802;2022-11-20T07:17:25;99772.31;;;8.78;100.00
55675;BME280;41562;44.330;23.802;2022-11-20T07:19:57;99777.84;;;8.92;100.00
55675;BME280;41562;44.330;23.802;2022-11-20T07:22:36;99763.75;;;8.81;100.00
55675;BME280;41562;44.330;23.802;2022-11-20T07:25:06;99765.59;;;8.85;100.00
55675;BME280;41562;44.330;23.802;2022-11-20T07:27:40;99765.81;;;10.02;100.00
55675;BME280;41562;44.330;23.802;2022-11-20T07:30:16;99761.69;;;9.37;100.00
55675;BME280;41562;44.330;23.802;2022-11-20T07:33:01;99757.53;;;9.11;100.00
55675;BME280;41562;44.330;23.802;2022-11-20T07:35:31;99757.34;;;8.97;100.00
55675;BME280;41562;44.330;23.802;2022-11-20T07:38:17;99752.84;;;8.82;100.00
55675;BME280;41562;44.330;23.802;2022-11-20T07:40:44;99761.34;;;8.79;100.00
55675;BME280;41562;44.330;23.802;2022-11-20T07:43:12;99748.78;;;8.95;100.00
55675;BME280;41562;44.330;23.802;2022-11-20T07:45:47;99748.00;;;8.95;100.00
55675;BME280;41562;44.330;23.802;2022-11-20T07:48:21;99749.88;;;8.89;100.00
55675;BME280;41562;44.330;23.802;2022-11-20T07:50:57;99748.31;;;8.83;100.00
55675;BME280;41562;44.330;23.802;2022-11-20T07:53:25;99736.47;;;9.14;100.00
55675;BME280;41562;44.330;23.802;2022-11-20T07:56:02;99737.38;;;8.74;100.00
55675;BME280;41562;44.330;23.802;2022-11-20T07:58:35;99752.84;;;8.82;100.00
55675;BME280;41562;44.330;23.802;2022-11-20T08:01:07;99752.06;;;8.77;100.00
55675;BME280;41562;44.330;23.802;2022-11-20T08:03:36;99746.91;;;9.01;100.00
55675;BME280;41562;44.330;23.802;2022-11-20T08:06:10;99758.75;;;8.64;100.00
55675;BME280;41562;44.330;23.802;2022-11-20T08:08:41;99769.66;;;8.68;100.00
55675;BME280;41562;44.330;23.802;2022-11-20T08:11:09;99768.31;;;8.70;100.00
55675;BME280;41562;44.330;23.802;2022-11-20T08:13:37;99772.00;;;8.95;100.00
55675;BME280;41562;44.330;23.802;2022-11-20T08:16:04;99771.00;;;8.70;100.00
55675;BME280;41562;44.330;23.802;2022-11-20T08:18:31;99776.59;;;8.69;100.00
55675;BME280;41562;44.330;23.802;2022-11-20T08:21:03;99776.03;;;8.77;100.00
55675;BME280;41562;44.330;23.802;2022-11-20T08:23:35;99773.31;;;8.97;100.00
55675;BME280;41562;44.330;23.802;2022-11-20T08:26:02;99785.09;;;8.91;100.00
55675;BME280;41562;44.330;23.802;2022-11-20T08:28:39;99796.81;;;8.85;100.00
55675;BME280;41562;44.330;23.802;2022-11-20T08:31:07;99811.75;;;8.81;100.00
55675;BME280;41562;44.330;23.802;2022-11-20T08:33:47;99817.28;;;9.05;100.00
55675;BME280;41562;44.330;23.802;2022-11-20T08:36:22;99814.34;;;9.06;100.00
55675;BME280;41562;44.330;23.802;2022-11-20T08:39:00;99820.50;;;9.07;100.00
55675;BME280;41562;44.330;23.802;2022-11-20T08:41:31;99834.06;;;9.15;100.00
55675;BME280;41562;44.330;23.802;2022-11-20T08:44:00;99842.28;;;9.34;100.00
55675;BME280;41562;44.330;23.802;2022-11-20T08:46:35;99845.75;;;9.29;100.00
55675;BME280;41562;44.330;23.802;2022-11-20T08:49:05;99846.81;;;9.34;100.00
55675;BME280;41562;44.330;23.802;2022-11-20T08:51:35;99845.78;;;9.19;100.00
55675;BME280;41562;44.330;23.802;2022-11-20T08:54:06;99848.72;;;9.28;100.00
55675;BME280;41562;44.330;23.802;2022-11-20T08:56:34;99843.16;;;9.14;100.00
55675;BME280;41562;44.330;23.802;2022-11-20T08:59:02;99846.84;;;9.23;100.00
55675;BME280;41562;44.330;23.802;2022-11-20T09:01:58;99846.31;;;9.26;100.00
55675;BME280;41562;44.330;23.802;2022-11-20T09:04:26;99846.47;;;9.60;100.00
55675;BME280;41562;44.330;23.802;2022-11-20T09:07:02;99851.91;;;11.25;100.00
55675;BME280;41562;44.330;23.802;2022-11-20T09:09:30;99848.84;;;12.17;100.00
55675;BME280;41562;44.330;23.802;2022-11-20T09:12:11;99852.50;;;12.39;100.00
55675;BME280;41562;44.330;23.802;2022-11-20T09:14:47;99862.03;;;12.51;100.00
55675;BME280;41562;44.330;23.802;2022-11-20T09:17:24;99869.22;;;12.69;100.00
55675;BME280;41562;44.330;23.802;2022-11-20T09:19:55;99869.78;;;12.15;99.35
55675;BME280;41562;44.330;23.802;2022-11-20T09:22:39;99860.97;;;11.00;100.00
55675;BME280;41562;44.330;23.802;2022-11-20T09:25:13;99857.03;;;10.25;100.00
55675;BME280;41562;44.330;23.802;2022-11-20T09:28:01;99842.00;;;9.95;100.00
55675;BME280;41562;44.330;23.802;2022-11-20T09:30:33;99842.78;;;9.95;100.00
55675;BME280;41562;44.330;23.802;2022-11-20T09:33:04;99821.31;;;9.72;100.00
55675;BME280;41562;44.330;23.802;2022-11-20T09:35:36;99834.69;;;9.66;100.00
55675;BME280;41562;44.330;23.802;2022-11-20T09:38:09;99820.50;;;9.71;100.00
55675;BME280;41562;44.330;23.802;2022-11-20T09:49:55;99829.63;;;9.60;100.00
55675;BME280;41562;44.330;23.802;2022-11-20T09:52:37;99826.69;;;9.66;100.00
55675;BME280;41562;44.330;23.802;2022-11-20T09:55:12;99835.47;;;9.67;100.00
55675;BME280;41562;44.330;23.802;2022-11-20T09:57:49;99847.44;;;9.75;100.00
55675;BME280;41562;44.330;23.802;2022-11-20T10:00:18;99856.22;;;9.85;100.00
55675;BME280;41562;44.330;23.802;2022-11-20T10:03:12;99841.00;;;9.86;100.00
55675;BME280;41562;44.330;23.802;2022-11-20T10:05:45;99835.84;;;9.45;100.00
55675;BME280;41562;44.330;23.802;2022-11-20T10:08:31;99830.06;;;9.13;100.00
55675;BME280;41562;44.330;23.802;2022-11-20T10:11:20;99820.69;;;9.36;100.00
55675;BME280;41562;44.330;23.802;2022-11-20T10:14:20;99813.88;;;9.58;100.00
55675;BME280;41562;44.330;23.802;2022-11-20T10:17:16;99833.50;;;9.28;100.00
55675;BME280;41562;44.330;23.802;2022-11-20T10:19:59;99825.03;;;9.06;100.00
55675;BME280;41562;44.330;23.802;2022-11-20T10:25:34;99824.41;;;9.35;100.00
55675;BME280;41562;44.330;23.802;2022-11-20T10:28:10;99798.22;;;11.78;100.00
55675;BME280;41562;44.330;23.802;2022-11-20T10:31:03;99797.03;;;12.21;100.00
55675;BME280;41562;44.330;23.802;2022-11-20T10:33:41;99800.53;;;11.65;100.00
55675;BME280;41562;44.330;23.802;2022-11-20T10:36:40;99808.31;;;12.04;100.00
55675;BME280;41562;44.330;23.802;2022-11-20T10:39:30;99799.25;;;14.10;100.00
55675;BME280;41562;44.330;23.802;2022-11-20T10:42:11;99792.50;;;14.13;95.71
55675;BME280;41562;44.330;23.802;2022-11-20T10:44:49;99809.63;;;11.88;100.00
55675;BME280;41562;44.330;23.802;2022-11-20T10:47:25;99820.94;;;11.14;100.00
55675;BME280;41562;44.330;23.802;2022-11-20T10:49:55;99814.28;;;10.25;100.00
55675;BME280;41562;44.330;23.802;2022-11-20T10:55:42;99798.09;;;9.67;100.00
55675;BME280;41562;44.330;23.802;2022-11-20T10:58:17;99798.78;;;9.39;100.00
55675;BME280;41562;44.330;23.802;2022-11-20T11:00:49;99805.97;;;9.38;100.00
55675;BME280;41562;44.330;23.802;2022-11-20T11:03:24;99801.34;;;9.59;100.00
55675;BME280;41562;44.330;23.802;2022-11-20T11:06:20;99788.13;;;9.34;100.00
55675;BME280;41562;44.330;23.802;2022-11-20T11:08:53;99798.75;;;9.44;100.00
55675;BME280;41562;44.330;23.802;2022-11-20T11:11:28;99799.63;;;9.24;100.00
55675;BME280;41562;44.330;23.802;2022-11-20T11:14:11;99797.59;;;9.60;100.00
55675;BME280;41562;44.330;23.802;2022-11-20T11:16:56;99783.28;;;9.41;100.00
55675;BME280;41562;44.330;23.802;2022-11-20T11:19:24;99779.06;;;9.35;100.00
55675;BME280;41562;44.330;23.802;2022-11-20T11:21:54;99776.16;;;9.21;100.00
55675;BME280;41562;44.330;23.802;2022-11-20T11:24:25;99776.44;;;9.19;100.00
55675;BME280;41562;44.330;23.802;2022-11-20T11:27:14;99781.44;;;10.82;100.00
55675;BME280;41562;44.330;23.802;2022-11-20T11:29:45;99780.75;;;12.96;100.00
55675;BME280;41562;44.330;23.802;2022-11-20T11:32:20;99780.97;;;13.13;100.00
55675;BME280;41562;44.330;23.802;2022-11-20T11:35:18;99784.50;;;11.42;100.00
55675;BME280;41562;44.330;23.802;2022-11-20T11:37:46;99777.66;;;10.59;100.00
55675;BME280;41562;44.330;23.802;2022-11-20T11:40:15;99760.91;;;10.15;100.00
55675;BME280;41562;44.330;23.802;2022-11-20T11:43:28;99764.00;;;9.93;100.00
55675;BME280;41562;44.330;23.802;2022-11-20T11:46:07;99774.53;;;9.79;100.00
55675;BME280;41562;44.330;23.802;2022-11-20T11:48:40;99793.88;;;10.00;100.00
55675;BME280;41562;44.330;23.802;2022-11-20T11:51:20;99799.06;;;9.86;100.00
55675;BME280;41562;44.330;23.802;2022-11-20T11:53:47;99802.28;;;9.83;100.00
55675;BME280;41562;44.330;23.802;2022-11-20T11:56:15;99803.91;;;9.74;100.00
55675;BME280;41562;44.330;23.802;2022-11-20T11:58:46;99804.56;;;11.44;100.00
55675;BME280;41562;44.330;23.802;2022-11-20T12:05:08;99784.91;;;10.25;100.00
55675;BME280;41562;44.330;23.802;2022-11-20T12:07:12;99766.34;;;10.04;100.00
55675;BME280;41562;44.330;23.802;2022-11-20T12:10:07;99750.50;;;9.79;100.00
55675;BME280;41562;44.330;23.802;2022-11-20T12:12:44;99746.78;;;9.75;100.00
55675;BME280;41562;44.330;23.802;2022-11-20T12:15:25;99742.50;;;9.79;100.00
55675;BME280;41562;44.330;23.802;2022-11-20T12:17:53;99735.06;;;9.71;100.00
55675;BME280;41562;44.330;23.802;2022-11-20T12:20:26;99734.47;;;9.40;100.00
55675;BME280;41562;44.330;23.802;2022-11-20T12:23:08;99737.47;;;9.28;100.00
55675;BME280;41562;44.330;23.802;2022-11-20T12:25:38;99741.22;;;9.17;100.00
55675;BME280;41562;44.330;23.802;2022-11-20T12:28:19;99744.91;;;9.32;100.00
55675;BME280;41562;44.330;23.802;2022-11-20T12:39:35;99731.22;;;9.48;100.00
55675;BME280;41562;44.330;23.802;2022-11-20T13:07:35;99720.84;;;9.42;100.00
55675;BME280;41562;44.330;23.802;2022-11-20T13:10:03;99695.53;;;9.34;100.00
55675;BME280;41562;44.330;23.802;2022-11-20T13:12:50;99703.06;;;9.27;100.00
55675;BME280;41562;44.330;23.802;2022-11-20T13:18:11;99717.81;;;9.09;100.00
55675;BME280;41562;44.330;23.802;2022-11-20T13:20:43;99709.34;;;8.97;100.00
55675;BME280;41562;44.330;23.802;2022-11-20T13:23:26;99696.34;;;9.29;100.00
55675;BME280;41562;44.330;23.802;2022-11-20T13:26:16;99695.09;;;9.22;100.00
55675;BME280;41562;44.330;23.802;2022-11-20T13:28:46;99688.94;;;9.21;100.00
55675;BME280;41562;44.330;23.802;2022-11-20T13:31:29;99694.31;;;9.11;100.00
55675;BME280;41562;44.330;23.802;2022-11-20T13:33:58;99690.53;;;9.22;100.00
55675;BME280;41562;44.330;23.802;2022-11-20T13:36:31;99680.03;;;8.87;100.00
55675;BME280;41562;44.330;23.802;2022-11-20T13:38:59;99683.00;;;8.75;100.00
55675;BME280;41562;44.330;23.802;2022-11-20T13:41:35;99685.91;;;8.89;100.00
55675;BME280;41562;44.330;23.802;2022-11-20T13:46:44;99705.53;;;9.08;100.00
55675;BME280;41562;44.330;23.802;2022-11-20T13:49:26;99713.75;;;9.17;100.00
55675;BME280;41562;44.330;23.802;2022-11-20T13:55:11;99734.03;;;9.23;100.00
55675;BME280;41562;44.330;23.802;2022-11-20T14:00:25;99730.53;;;9.27;100.00
55675;BME280;41562;44.330;23.802;2022-11-20T14:05:39;99746.16;;;9.44;100.00
55675;BME280;41562;44.330;23.802;2022-11-20T14:08:21;99744.06;;;9.41;100.00
55675;BME280;41562;44.330;23.802;2022-11-20T14:11:02;99741.09;;;9.43;100.00
55675;BME280;41562;44.330;23.802;2022-11-20T14:13:30;99749.41;;;9.41;100.00
55675;BME280;41562;44.330;23.802;2022-11-20T14:15:57;99768.28;;;9.50;100.00
55675;BME280;41562;44.330;23.802;2022-11-20T14:18:26;99761.34;;;9.54;100.00
55675;BME280;41562;44.330;23.802;2022-11-20T14:20:53;99744.75;;;9.57;100.00
55675;BME280;41562;44.330;23.802;2022-11-20T14:23:26;99737.88;;;9.51;100.00
55675;BME280;41562;44.330;23.802;2022-11-20T14:25:56;99723.41;;;9.57;100.00
55675;BME280;41562;44.330;23.802;2022-11-20T14:28:27;99703.47;;;9.44;100.00